sensor_id;sensor_type;location;lat;lon;timestamp;P1;durP1;ratioP1;P2;durP2;ratioP2
60038;SDS011;45916;52.734;6.544;2022-10-16T00:01:07;7.93;;;4.13;;
60038;SDS011;45916;52.734;6.544;2022-10-16T00:03:39;7.05;;;3.67;;
60038;SDS011;45916;52.734;6.544;2022-10-16T00:06:07;9.70;;;4.47;;
60038;SDS011;45916;52.734;6.544;2022-10-16T00:08:34;7.78;;;3.60;;
60038;SDS011;45916;52.734;6.544;2022-10-16T00:11:10;9.75;;;3.95;;
60038;SDS011;45916;52.734;6.544;2022-10-16T00:13:39;8.05;;;4.05;;
60038;SDS011;45916;52.734;6.544;2022-10-16T00:16:06;6.72;;;3.25;;
60038;SDS011;45916;52.734;6.544;2022-10-16T00:18:33;6.40;;;3.90;;
60038;SDS011;45916;52.734;6.544;2022-10-16T00:21:06;7.82;;;3.65;;
60038;SDS011;45916;52.734;6.544;2022-10-16T00:23:37;8.25;;;3.40;;
60038;SDS011;45916;52.734;6.544;2022-10-16T00:26:04;8.07;;;3.70;;
60038;SDS011;45916;52.734;6.544;2022-10-16T00:28:32;8.38;;;3.28;;
60038;SDS011;45916;52.734;6.544;2022-10-16T00:30:58;10.82;;;4.35;;
60038;SDS011;45916;52.734;6.544;2022-10-16T00:33:24;7.55;;;3.58;;
60038;SDS011;45916;52.734;6.544;2022-10-16T00:35:50;8.35;;;4.00;;
60038;SDS011;45916;52.734;6.544;2022-10-16T00:38:15;8.18;;;4.32;;
60038;SDS011;45916;52.734;6.544;2022-10-16T00:40:41;7.97;;;4.00;;
60038;SDS011;45916;52.734;6.544;2022-10-16T00:43:14;9.40;;;3.97;;
60038;SDS011;45916;52.734;6.544;2022-10-16T00:46:00;8.60;;;3.95;;
60038;SDS011;45916;52.734;6.544;2022-10-16T00:48:28;6.53;;;3.72;;
60038;SDS011;45916;52.734;6.544;2022-10-16T00:50:55;7.78;;;4.03;;
60038;SDS011;45916;52.734;6.544;2022-10-16T00:53:22;9.27;;;3.97;;
60038;SDS011;45916;52.734;6.544;2022-10-16T00:55:49;8.35;;;3.95;;
60038;SDS011;45916;52.734;6.544;2022-10-16T00:58:15;8.93;;;4.47;;
60038;SDS011;45916;52.734;6.544;2022-10-16T01:00:41;8.00;;;4.78;;
60038;SDS011;45916;52.734;6.544;2022-10-16T01:08:42;8.43;;;3.97;;
60038;SDS011;45916;52.734;6.544;2022-10-16T01:13:53;7.95;;;4.20;;
60038;SDS011;45916;52.734;6.544;2022-10-16T01:19:17;9.30;;;4.88;;
60038;SDS011;45916;52.734;6.544;2022-10-16T01:21:53;8.23;;;5.10;;
60038;SDS011;45916;52.734;6.544;2022-10-16T01:24:31;9.48;;;5.10;;
60038;SDS011;45916;52.734;6.544;2022-10-16T01:32:23;8.68;;;4.55;;
60038;SDS011;45916;52.734;6.544;2022-10-16T01:35:15;7.25;;;4.88;;
60038;SDS011;45916;52.734;6.544;2022-10-16T01:38:07;7.25;;;5.20;;
60038;SDS011;45916;52.734;6.544;2022-10-16T01:40:36;8.48;;;4.45;;
60038;SDS011;45916;52.734;6.544;2022-10-16T01:43:11;10.13;;;4.97;;
60038;SDS011;45916;52.734;6.544;2022-10-16T01:45:39;9.88;;;4.90;;
60038;SDS011;45916;52.734;6.544;2022-10-16T01:48:06;9.45;;;5.47;;
60038;SDS011;45916;52.734;6.544;2022-10-16T01:53:04;9.25;;;4.82;;
60038;SDS011;45916;52.734;6.544;2022-10-16T01:55:32;11.43;;;5.50;;
60038;SDS011;45916;52.734;6.544;2022-10-16T01:58:01;8.30;;;5.07;;
60038;SDS011;45916;52.734;6.544;2022-10-16T02:00:30;8.57;;;5.07;;
60038;SDS011;45916;52.734;6.544;2022-10-16T02:02:56;7.90;;;4.90;;
60038;SDS011;45916;52.734;6.544;2022-10-16T02:05:26;9.02;;;4.40;;
60038;SDS011;45916;52.734;6.544;2022-10-16T02:08:04;9.57;;;5.60;;
60038;SDS011;45916;52.734;6.544;2022-10-16T02:10:29;11.68;;;5.60;;
60038;SDS011;45916;52.734;6.544;2022-10-16T02:13:38;8.85;;;4.75;;
60038;SDS011;45916;52.734;6.544;2022-10-16T02:15:48;8.85;;;5.05;;
60038;SDS011;45916;52.734;6.544;2022-10-16T02:18:13;8.77;;;5.28;;
60038;SDS011;45916;52.734;6.544;2022-10-16T02:20:43;8.45;;;5.03;;
60038;SDS011;45916;52.734;6.544;2022-10-16T02:23:34;10.32;;;4.82;;
60038;SDS011;45916;52.734;6.544;2022-10-16T02:26:07;7.35;;;4.72;;
60038;SDS011;45916;52.734;6.544;2022-10-16T02:28:42;8.70;;;5.10;;
60038;SDS011;45916;52.734;6.544;2022-10-16T02:31:12;9.25;;;5.00;;
60038;SDS011;45916;52.734;6.544;2022-10-16T02:33:45;8.15;;;4.70;;
60038;SDS011;45916;52.734;6.544;2022-10-16T02:36:11;7.18;;;4.78;;
60038;SDS011;45916;52.734;6.544;2022-10-16T02:38:37;9.82;;;4.80;;
60038;SDS011;45916;52.734;6.544;2022-10-16T02:41:05;6.90;;;4.53;;
60038;SDS011;45916;52.734;6.544;2022-10-16T02:43:31;8.00;;;5.60;;
60038;SDS011;45916;52.734;6.544;2022-10-16T02:45:58;8.85;;;4.65;;
60038;SDS011;45916;52.734;6.544;2022-10-16T02:48:25;8.45;;;5.07;;
60038;SDS011;45916;52.734;6.544;2022-10-16T02:50:50;6.82;;;4.60;;
60038;SDS011;45916;52.734;6.544;2022-10-16T02:53:16;7.15;;;4.28;;
60038;SDS011;45916;52.734;6.544;2022-10-16T02:55:41;6.97;;;4.80;;
60038;SDS011;45916;52.734;6.544;2022-10-16T02:58:07;9.45;;;4.57;;
60038;SDS011;45916;52.734;6.544;2022-10-16T03:00:34;8.02;;;4.43;;
60038;SDS011;45916;52.734;6.544;2022-10-16T03:03:00;8.65;;;4.57;;
60038;SDS011;45916;52.734;6.544;2022-10-16T03:05:25;6.38;;;4.32;;
60038;SDS011;45916;52.734;6.544;2022-10-16T03:07:51;8.02;;;4.63;;
60038;SDS011;45916;52.734;6.544;2022-10-16T03:10:17;7.50;;;4.65;;
60038;SDS011;45916;52.734;6.544;2022-10-16T03:12:43;7.30;;;4.57;;
60038;SDS011;45916;52.734;6.544;2022-10-16T03:15:09;7.97;;;4.68;;
60038;SDS011;45916;52.734;6.544;2022-10-16T03:17:35;7.60;;;5.10;;
60038;SDS011;45916;52.734;6.544;2022-10-16T03:20:01;8.95;;;5.68;;
60038;SDS011;45916;52.734;6.544;2022-10-16T03:22:27;7.05;;;4.78;;
60038;SDS011;45916;52.734;6.544;2022-10-16T03:24:53;8.30;;;5.32;;
60038;SDS011;45916;52.734;6.544;2022-10-16T03:27:19;7.65;;;5.00;;
60038;SDS011;45916;52.734;6.544;2022-10-16T03:29:45;13.13;;;5.63;;
60038;SDS011;45916;52.734;6.544;2022-10-16T03:32:11;7.93;;;5.03;;
60038;SDS011;45916;52.734;6.544;2022-10-16T03:34:37;9.10;;;5.47;;
60038;SDS011;45916;52.734;6.544;2022-10-16T03:37:02;8.20;;;5.60;;
60038;SDS011;45916;52.734;6.544;2022-10-16T03:39:28;7.15;;;5.07;;
60038;SDS011;45916;52.734;6.544;2022-10-16T03:41:54;8.73;;;5.57;;
60038;SDS011;45916;52.734;6.544;2022-10-16T03:44:20;11.10;;;5.70;;
60038;SDS011;45916;52.734;6.544;2022-10-16T03:46:46;10.57;;;6.25;;
60038;SDS011;45916;52.734;6.544;2022-10-16T03:49:12;7.80;;;5.53;;
60038;SDS011;45916;52.734;6.544;2022-10-16T03:51:37;8.27;;;5.53;;
60038;SDS011;45916;52.734;6.544;2022-10-16T03:54:03;7.63;;;6.32;;
60038;SDS011;45916;52.734;6.544;2022-10-16T03:56:29;8.80;;;6.05;;
60038;SDS011;45916;52.734;6.544;2022-10-16T03:58:54;9.70;;;5.88;;
60038;SDS011;45916;52.734;6.544;2022-10-16T04:01:20;9.57;;;5.88;;
60038;SDS011;45916;52.734;6.544;2022-10-16T04:03:46;10.18;;;6.10;;
60038;SDS011;45916;52.734;6.544;2022-10-16T04:06:11;8.35;;;5.88;;
60038;SDS011;45916;52.734;6.544;2022-10-16T04:08:37;9.65;;;6.28;;
60038;SDS011;45916;52.734;6.544;2022-10-16T04:11:04;9.32;;;6.10;;
60038;SDS011;45916;52.734;6.544;2022-10-16T04:13:30;10.63;;;6.50;;
60038;SDS011;45916;52.734;6.544;2022-10-16T04:15:56;7.70;;;6.20;;
60038;SDS011;45916;52.734;6.544;2022-10-16T04:18:21;11.07;;;6.80;;
60038;SDS011;45916;52.734;6.544;2022-10-16T04:20:48;9.20;;;6.35;;
60038;SDS011;45916;52.734;6.544;2022-10-16T04:23:13;9.73;;;6.50;;
60038;SDS011;45916;52.734;6.544;2022-10-16T04:25:39;9.20;;;6.60;;
60038;SDS011;45916;52.734;6.544;2022-10-16T04:28:05;10.85;;;6.82;;
60038;SDS011;45916;52.734;6.544;2022-10-16T04:30:30;8.70;;;6.60;;
60038;SDS011;45916;52.734;6.544;2022-10-16T04:32:58;8.93;;;6.72;;
60038;SDS011;45916;52.734;6.544;2022-10-16T04:35:24;10.85;;;7.25;;
60038;SDS011;45916;52.734;6.544;2022-10-16T04:37:49;10.13;;;6.68;;
60038;SDS011;45916;52.734;6.544;2022-10-16T04:40:15;12.82;;;6.32;;
60038;SDS011;45916;52.734;6.544;2022-10-16T04:42:41;8.27;;;6.05;;
60038;SDS011;45916;52.734;6.544;2022-10-16T04:45:07;10.05;;;6.65;;
60038;SDS011;45916;52.734;6.544;2022-10-16T04:47:33;9.68;;;6.30;;
60038;SDS011;45916;52.734;6.544;2022-10-16T04:49:59;8.93;;;6.63;;
60038;SDS011;45916;52.734;6.544;2022-10-16T04:52:26;8.18;;;6.57;;
60038;SDS011;45916;52.734;6.544;2022-10-16T04:54:52;12.20;;;7.82;;
60038;SDS011;45916;52.734;6.544;2022-10-16T04:57:18;8.70;;;6.90;;
60038;SDS011;45916;52.734;6.544;2022-10-16T04:59:44;10.60;;;6.88;;
60038;SDS011;45916;52.734;6.544;2022-10-16T05:02:10;9.43;;;6.35;;
60038;SDS011;45916;52.734;6.544;2022-10-16T05:04:35;9.60;;;7.40;;
60038;SDS011;45916;52.734;6.544;2022-10-16T05:07:01;10.27;;;7.05;;
60038;SDS011;45916;52.734;6.544;2022-10-16T05:09:27;10.27;;;7.45;;
60038;SDS011;45916;52.734;6.544;2022-10-16T05:11:52;9.07;;;7.28;;
60038;SDS011;45916;52.734;6.544;2022-10-16T05:14:18;8.52;;;7.38;;
60038;SDS011;45916;52.734;6.544;2022-10-16T05:16:44;8.43;;;6.97;;
60038;SDS011;45916;52.734;6.544;2022-10-16T05:19:09;9.55;;;6.93;;
60038;SDS011;45916;52.734;6.544;2022-10-16T05:21:35;11.38;;;7.63;;
60038;SDS011;45916;52.734;6.544;2022-10-16T05:24:01;9.30;;;6.68;;
60038;SDS011;45916;52.734;6.544;2022-10-16T05:26:26;10.77;;;8.63;;
60038;SDS011;45916;52.734;6.544;2022-10-16T05:28:52;10.18;;;7.30;;
60038;SDS011;45916;52.734;6.544;2022-10-16T05:31:18;9.98;;;7.32;;
60038;SDS011;45916;52.734;6.544;2022-10-16T05:33:43;9.35;;;6.68;;
60038;SDS011;45916;52.734;6.544;2022-10-16T05:36:09;9.30;;;7.35;;
60038;SDS011;45916;52.734;6.544;2022-10-16T05:38:35;11.90;;;7.13;;
60038;SDS011;45916;52.734;6.544;2022-10-16T05:41:02;10.02;;;6.50;;
60038;SDS011;45916;52.734;6.544;2022-10-16T05:43:30;11.07;;;6.73;;
60038;SDS011;45916;52.734;6.544;2022-10-16T05:48:23;9.90;;;6.75;;
60038;SDS011;45916;52.734;6.544;2022-10-16T05:51:02;8.10;;;6.28;;
60038;SDS011;45916;52.734;6.544;2022-10-16T05:53:30;8.50;;;6.65;;
60038;SDS011;45916;52.734;6.544;2022-10-16T05:55:57;10.23;;;6.57;;
60038;SDS011;45916;52.734;6.544;2022-10-16T05:58:23;8.90;;;6.07;;
60038;SDS011;45916;52.734;6.544;2022-10-16T06:00:57;10.57;;;6.07;;
60038;SDS011;45916;52.734;6.544;2022-10-16T06:03:24;9.55;;;6.88;;
60038;SDS011;45916;52.734;6.544;2022-10-16T06:05:51;10.82;;;5.72;;
60038;SDS011;45916;52.734;6.544;2022-10-16T06:08:17;8.80;;;5.80;;
60038;SDS011;45916;52.734;6.544;2022-10-16T06:10:44;9.45;;;5.72;;
60038;SDS011;45916;52.734;6.544;2022-10-16T06:13:11;7.70;;;5.50;;
60038;SDS011;45916;52.734;6.544;2022-10-16T06:15:38;12.27;;;6.15;;
60038;SDS011;45916;52.734;6.544;2022-10-16T06:18:04;9.30;;;6.10;;
60038;SDS011;45916;52.734;6.544;2022-10-16T06:20:30;8.50;;;5.10;;
60038;SDS011;45916;52.734;6.544;2022-10-16T06:22:56;9.23;;;5.78;;
60038;SDS011;45916;52.734;6.544;2022-10-16T06:25:22;8.43;;;5.57;;
60038;SDS011;45916;52.734;6.544;2022-10-16T06:27:48;8.68;;;5.70;;
60038;SDS011;45916;52.734;6.544;2022-10-16T06:30:13;8.82;;;5.63;;
60038;SDS011;45916;52.734;6.544;2022-10-16T06:32:39;9.43;;;5.07;;
60038;SDS011;45916;52.734;6.544;2022-10-16T06:35:05;9.57;;;5.20;;
60038;SDS011;45916;52.734;6.544;2022-10-16T06:37:31;8.65;;;4.95;;
60038;SDS011;45916;52.734;6.544;2022-10-16T06:39:56;7.60;;;4.78;;
60038;SDS011;45916;52.734;6.544;2022-10-16T06:42:22;7.55;;;4.30;;
60038;SDS011;45916;52.734;6.544;2022-10-16T06:44:48;7.82;;;4.90;;
60038;SDS011;45916;52.734;6.544;2022-10-16T06:47:13;8.77;;;4.95;;
60038;SDS011;45916;52.734;6.544;2022-10-16T06:49:39;7.97;;;5.03;;
60038;SDS011;45916;52.734;6.544;2022-10-16T06:52:05;8.25;;;4.32;;
60038;SDS011;45916;52.734;6.544;2022-10-16T06:54:30;7.15;;;4.53;;
60038;SDS011;45916;52.734;6.544;2022-10-16T06:56:56;8.02;;;4.68;;
60038;SDS011;45916;52.734;6.544;2022-10-16T06:59:22;6.45;;;4.00;;
60038;SDS011;45916;52.734;6.544;2022-10-16T07:01:47;7.13;;;4.05;;
60038;SDS011;45916;52.734;6.544;2022-10-16T07:04:13;6.47;;;4.10;;
60038;SDS011;45916;52.734;6.544;2022-10-16T07:06:39;6.55;;;4.22;;
60038;SDS011;45916;52.734;6.544;2022-10-16T07:09:06;6.65;;;3.95;;
60038;SDS011;45916;52.734;6.544;2022-10-16T07:11:34;7.68;;;4.05;;
60038;SDS011;45916;52.734;6.544;2022-10-16T07:14:01;6.97;;;3.72;;
60038;SDS011;45916;52.734;6.544;2022-10-16T07:16:28;6.57;;;3.40;;
60038;SDS011;45916;52.734;6.544;2022-10-16T07:18:56;6.40;;;3.80;;
60038;SDS011;45916;52.734;6.544;2022-10-16T07:21:26;9.23;;;4.03;;
60038;SDS011;45916;52.734;6.544;2022-10-16T07:24:00;6.60;;;3.95;;
60038;SDS011;45916;52.734;6.544;2022-10-16T07:26:27;7.07;;;3.35;;
60038;SDS011;45916;52.734;6.544;2022-10-16T07:28:56;6.20;;;3.38;;
60038;SDS011;45916;52.734;6.544;2022-10-16T07:31:22;7.55;;;3.53;;
60038;SDS011;45916;52.734;6.544;2022-10-16T07:33:48;6.03;;;3.30;;
60038;SDS011;45916;52.734;6.544;2022-10-16T07:36:15;5.88;;;3.13;;
60038;SDS011;45916;52.734;6.544;2022-10-16T07:38:42;7.50;;;3.08;;
60038;SDS011;45916;52.734;6.544;2022-10-16T07:41:09;7.80;;;3.33;;
60038;SDS011;45916;52.734;6.544;2022-10-16T07:46:03;7.90;;;3.08;;
60038;SDS011;45916;52.734;6.544;2022-10-16T07:48:29;8.35;;;3.33;;
60038;SDS011;45916;52.734;6.544;2022-10-16T07:51:01;5.93;;;2.80;;
60038;SDS011;45916;52.734;6.544;2022-10-16T07:53:31;7.82;;;2.95;;
60038;SDS011;45916;52.734;6.544;2022-10-16T07:56:01;9.55;;;2.90;;
60038;SDS011;45916;52.734;6.544;2022-10-16T07:58:28;9.10;;;5.70;;
60038;SDS011;45916;52.734;6.544;2022-10-16T08:00:55;9.50;;;6.18;;
60038;SDS011;45916;52.734;6.544;2022-10-16T08:03:21;22.77;;;3.67;;
60038;SDS011;45916;52.734;6.544;2022-10-16T08:05:47;5.75;;;3.03;;
60038;SDS011;45916;52.734;6.544;2022-10-16T08:08:13;6.85;;;2.85;;
60038;SDS011;45916;52.734;6.544;2022-10-16T08:10:40;10.60;;;9.15;;
60038;SDS011;45916;52.734;6.544;2022-10-16T08:13:06;11.35;;;9.63;;
60038;SDS011;45916;52.734;6.544;2022-10-16T08:15:32;5.60;;;4.03;;
60038;SDS011;45916;52.734;6.544;2022-10-16T08:17:59;6.72;;;2.95;;
60038;SDS011;45916;52.734;6.544;2022-10-16T08:20:26;6.03;;;3.17;;
60038;SDS011;45916;52.734;6.544;2022-10-16T08:22:53;5.27;;;3.00;;
60038;SDS011;45916;52.734;6.544;2022-10-16T08:25:20;7.88;;;3.28;;
60038;SDS011;45916;52.734;6.544;2022-10-16T08:27:46;8.15;;;3.25;;
60038;SDS011;45916;52.734;6.544;2022-10-16T08:30:13;5.60;;;3.03;;
60038;SDS011;45916;52.734;6.544;2022-10-16T08:32:38;6.18;;;3.08;;
60038;SDS011;45916;52.734;6.544;2022-10-16T08:35:06;7.17;;;3.27;;
60038;SDS011;45916;52.734;6.544;2022-10-16T08:37:32;6.90;;;3.58;;
60038;SDS011;45916;52.734;6.544;2022-10-16T08:40:04;7.15;;;3.08;;
60038;SDS011;45916;52.734;6.544;2022-10-16T08:45:15;6.57;;;2.78;;
60038;SDS011;45916;52.734;6.544;2022-10-16T08:51:04;6.50;;;2.58;;
60038;SDS011;45916;52.734;6.544;2022-10-16T08:56:05;5.25;;;2.45;;
60038;SDS011;45916;52.734;6.544;2022-10-16T08:58:31;6.40;;;2.92;;
60038;SDS011;45916;52.734;6.544;2022-10-16T09:01:00;5.85;;;2.22;;
60038;SDS011;45916;52.734;6.544;2022-10-16T09:11:15;5.93;;;2.10;;
60038;SDS011;45916;52.734;6.544;2022-10-16T09:17:00;6.40;;;2.00;;
60038;SDS011;45916;52.734;6.544;2022-10-16T09:19:51;5.63;;;2.05;;
60038;SDS011;45916;52.734;6.544;2022-10-16T09:22:37;8.27;;;2.17;;
60038;SDS011;45916;52.734;6.544;2022-10-16T09:25:11;5.53;;;1.75;;
60038;SDS011;45916;52.734;6.544;2022-10-16T09:27:47;6.78;;;2.00;;
60038;SDS011;45916;52.734;6.544;2022-10-16T09:30:17;7.22;;;1.40;;
60038;SDS011;45916;52.734;6.544;2022-10-16T09:32:45;5.55;;;1.58;;
60038;SDS011;45916;52.734;6.544;2022-10-16T09:35:14;5.05;;;1.58;;
60038;SDS011;45916;52.734;6.544;2022-10-16T09:37:50;5.60;;;1.60;;
60038;SDS011;45916;52.734;6.544;2022-10-16T09:43:16;7.15;;;2.40;;
60038;SDS011;45916;52.734;6.544;2022-10-16T09:45:56;6.03;;;1.75;;
60038;SDS011;45916;52.734;6.544;2022-10-16T09:48:28;7.00;;;1.95;;
60038;SDS011;45916;52.734;6.544;2022-10-16T09:51:16;7.32;;;1.83;;
60038;SDS011;45916;52.734;6.544;2022-10-16T09:53:45;6.57;;;2.75;;
60038;SDS011;45916;52.734;6.544;2022-10-16T09:56:20;8.50;;;2.15;;
60038;SDS011;45916;52.734;6.544;2022-10-16T09:58:52;7.25;;;1.77;;
60038;SDS011;45916;52.734;6.544;2022-10-16T10:01:19;7.15;;;2.38;;
60038;SDS011;45916;52.734;6.544;2022-10-16T10:03:48;6.72;;;1.90;;
60038;SDS011;45916;52.734;6.544;2022-10-16T10:09:22;5.70;;;2.17;;
60038;SDS011;45916;52.734;6.544;2022-10-16T10:12:02;7.90;;;2.00;;
60038;SDS011;45916;52.734;6.544;2022-10-16T10:14:40;6.35;;;2.05;;
60038;SDS011;45916;52.734;6.544;2022-10-16T10:17:12;8.18;;;1.98;;
60038;SDS011;45916;52.734;6.544;2022-10-16T10:19:39;6.65;;;1.77;;
60038;SDS011;45916;52.734;6.544;2022-10-16T10:49:14;7.93;;;2.35;;
60038;SDS011;45916;52.734;6.544;2022-10-16T10:52:07;10.65;;;2.45;;
60038;SDS011;45916;52.734;6.544;2022-10-16T10:55:09;7.22;;;2.03;;
60038;SDS011;45916;52.734;6.544;2022-10-16T11:03:21;8.82;;;2.35;;
60038;SDS011;45916;52.734;6.544;2022-10-16T11:05:56;8.43;;;2.35;;
60038;SDS011;45916;52.734;6.544;2022-10-16T11:11:30;7.40;;;2.20;;
60038;SDS011;45916;52.734;6.544;2022-10-16T11:14:02;8.57;;;2.20;;
60038;SDS011;45916;52.734;6.544;2022-10-16T11:16:49;9.20;;;2.35;;
60038;SDS011;45916;52.734;6.544;2022-10-16T11:24:53;10.60;;;3.10;;
60038;SDS011;45916;52.734;6.544;2022-10-16T11:30:16;9.55;;;2.30;;
60038;SDS011;45916;52.734;6.544;2022-10-16T11:32:52;7.65;;;2.20;;
60038;SDS011;45916;52.734;6.544;2022-10-16T11:38:12;5.53;;;2.10;;
60038;SDS011;45916;52.734;6.544;2022-10-16T11:41:00;7.70;;;2.03;;
60038;SDS011;45916;52.734;6.544;2022-10-16T11:43:38;11.25;;;2.38;;
60038;SDS011;45916;52.734;6.544;2022-10-16T11:46:18;11.75;;;3.08;;
60038;SDS011;45916;52.734;6.544;2022-10-16T11:51:43;12.38;;;2.67;;
60038;SDS011;45916;52.734;6.544;2022-10-16T11:57:03;7.88;;;2.67;;
60038;SDS011;45916;52.734;6.544;2022-10-16T12:02:26;9.90;;;2.22;;
60038;SDS011;45916;52.734;6.544;2022-10-16T12:05:01;7.78;;;2.20;;
60038;SDS011;45916;52.734;6.544;2022-10-16T12:10:28;7.45;;;2.00;;
60038;SDS011;45916;52.734;6.544;2022-10-16T12:12:56;8.23;;;2.70;;
60038;SDS011;45916;52.734;6.544;2022-10-16T12:17:52;9.48;;;2.60;;
60038;SDS011;45916;52.734;6.544;2022-10-16T12:20:37;7.80;;;2.17;;
60038;SDS011;45916;52.734;6.544;2022-10-16T12:23:06;9.73;;;2.50;;
60038;SDS011;45916;52.734;6.544;2022-10-16T12:25:44;7.97;;;2.13;;
60038;SDS011;45916;52.734;6.544;2022-10-16T12:28:27;6.38;;;2.10;;
60038;SDS011;45916;52.734;6.544;2022-10-16T12:31:05;6.47;;;2.33;;
60038;SDS011;45916;52.734;6.544;2022-10-16T12:36:03;7.95;;;2.70;;
60038;SDS011;45916;52.734;6.544;2022-10-16T12:38:48;9.98;;;2.90;;
60038;SDS011;45916;52.734;6.544;2022-10-16T12:41:29;8.57;;;2.42;;
60038;SDS011;45916;52.734;6.544;2022-10-16T12:44:05;9.57;;;2.45;;
60038;SDS011;45916;52.734;6.544;2022-10-16T12:46:46;6.60;;;1.98;;
60038;SDS011;45916;52.734;6.544;2022-10-16T12:51:37;10.45;;;2.92;;
60038;SDS011;45916;52.734;6.544;2022-10-16T12:56:43;7.93;;;2.33;;
60038;SDS011;45916;52.734;6.544;2022-10-16T12:59:38;7.57;;;2.10;;
60038;SDS011;45916;52.734;6.544;2022-10-16T13:02:39;12.68;;;2.28;;
60038;SDS011;45916;52.734;6.544;2022-10-16T13:08:35;10.75;;;2.50;;
60038;SDS011;45916;52.734;6.544;2022-10-16T13:17:02;8.93;;;3.08;;
60038;SDS011;45916;52.734;6.544;2022-10-16T13:25:53;9.45;;;2.22;;
60038;SDS011;45916;52.734;6.544;2022-10-16T13:28:32;7.35;;;2.30;;
60038;SDS011;45916;52.734;6.544;2022-10-16T13:30:59;8.45;;;2.00;;
60038;SDS011;45916;52.734;6.544;2022-10-16T13:33:30;7.85;;;2.08;;
60038;SDS011;45916;52.734;6.544;2022-10-16T13:35:57;7.90;;;2.28;;
60038;SDS011;45916;52.734;6.544;2022-10-16T13:38:30;8.63;;;2.53;;
60038;SDS011;45916;52.734;6.544;2022-10-16T13:41:04;7.75;;;2.25;;
60038;SDS011;45916;52.734;6.544;2022-10-16T13:43:39;8.88;;;2.70;;
60038;SDS011;45916;52.734;6.544;2022-10-16T13:46:12;5.88;;;2.10;;
60038;SDS011;45916;52.734;6.544;2022-10-16T13:48:42;8.02;;;2.20;;
60038;SDS011;45916;52.734;6.544;2022-10-16T13:51:12;7.32;;;1.70;;
60038;SDS011;45916;52.734;6.544;2022-10-16T13:53:40;8.23;;;2.17;;
60038;SDS011;45916;52.734;6.544;2022-10-16T13:56:09;5.97;;;2.03;;
60038;SDS011;45916;52.734;6.544;2022-10-16T13:58:39;5.60;;;1.98;;
60038;SDS011;45916;52.734;6.544;2022-10-16T14:01:06;5.85;;;2.08;;
60038;SDS011;45916;52.734;6.544;2022-10-16T14:03:45;9.80;;;2.95;;
60038;SDS011;45916;52.734;6.544;2022-10-16T14:06:13;7.70;;;2.55;;
60038;SDS011;45916;52.734;6.544;2022-10-16T14:08:43;8.38;;;2.50;;
60038;SDS011;45916;52.734;6.544;2022-10-16T14:11:13;7.63;;;2.00;;
60038;SDS011;45916;52.734;6.544;2022-10-16T14:13:49;7.05;;;2.28;;
60038;SDS011;45916;52.734;6.544;2022-10-16T14:16:23;9.63;;;2.70;;
60038;SDS011;45916;52.734;6.544;2022-10-16T14:19:02;8.35;;;2.97;;
60038;SDS011;45916;52.734;6.544;2022-10-16T14:21:35;8.48;;;2.65;;
60038;SDS011;45916;52.734;6.544;2022-10-16T14:24:12;8.50;;;2.85;;
60038;SDS011;45916;52.734;6.544;2022-10-16T14:26:42;7.93;;;3.55;;
60038;SDS011;45916;52.734;6.544;2022-10-16T14:29:13;6.20;;;2.15;;
60038;SDS011;45916;52.734;6.544;2022-10-16T14:31:40;12.18;;;3.10;;
60038;SDS011;45916;52.734;6.544;2022-10-16T14:36:58;7.85;;;2.65;;
60038;SDS011;45916;52.734;6.544;2022-10-16T14:39:27;7.97;;;2.40;;
60038;SDS011;45916;52.734;6.544;2022-10-16T14:41:55;9.95;;;2.58;;
60038;SDS011;45916;52.734;6.544;2022-10-16T14:44:26;7.95;;;2.63;;
60038;SDS011;45916;52.734;6.544;2022-10-16T14:47:06;8.05;;;3.17;;
60038;SDS011;45916;52.734;6.544;2022-10-16T14:49:38;11.95;;;3.50;;
60038;SDS011;45916;52.734;6.544;2022-10-16T14:52:14;8.00;;;2.55;;
60038;SDS011;45916;52.734;6.544;2022-10-16T14:54:40;7.03;;;2.78;;
60038;SDS011;45916;52.734;6.544;2022-10-16T14:57:13;10.02;;;3.05;;
60038;SDS011;45916;52.734;6.544;2022-10-16T14:59:45;7.90;;;3.08;;
60038;SDS011;45916;52.734;6.544;2022-10-16T15:02:20;8.13;;;2.78;;
60038;SDS011;45916;52.734;6.544;2022-10-16T15:04:52;7.90;;;3.08;;
60038;SDS011;45916;52.734;6.544;2022-10-16T15:07:18;8.95;;;3.60;;
60038;SDS011;45916;52.734;6.544;2022-10-16T15:09:43;16.15;;;6.30;;
60038;SDS011;45916;52.734;6.544;2022-10-16T15:12:09;7.15;;;3.45;;
60038;SDS011;45916;52.734;6.544;2022-10-16T15:14:35;11.98;;;3.28;;
60038;SDS011;45916;52.734;6.544;2022-10-16T15:17:01;8.63;;;3.10;;
60038;SDS011;45916;52.734;6.544;2022-10-16T15:19:27;14.02;;;3.60;;
60038;SDS011;45916;52.734;6.544;2022-10-16T15:21:53;11.60;;;3.53;;
60038;SDS011;45916;52.734;6.544;2022-10-16T15:24:18;20.30;;;3.20;;
60038;SDS011;45916;52.734;6.544;2022-10-16T15:26:44;8.82;;;2.95;;
60038;SDS011;45916;52.734;6.544;2022-10-16T15:29:14;11.90;;;3.60;;
60038;SDS011;45916;52.734;6.544;2022-10-16T15:31:40;11.82;;;3.55;;
60038;SDS011;45916;52.734;6.544;2022-10-16T15:34:08;13.65;;;4.10;;
60038;SDS011;45916;52.734;6.544;2022-10-16T15:36:35;11.52;;;4.38;;
60038;SDS011;45916;52.734;6.544;2022-10-16T15:39:03;8.50;;;3.42;;
60038;SDS011;45916;52.734;6.544;2022-10-16T15:41:29;8.50;;;3.13;;
60038;SDS011;45916;52.734;6.544;2022-10-16T15:43:55;8.35;;;3.03;;
60038;SDS011;45916;52.734;6.544;2022-10-16T15:46:22;7.45;;;3.42;;
60038;SDS011;45916;52.734;6.544;2022-10-16T15:48:49;8.88;;;3.40;;
60038;SDS011;45916;52.734;6.544;2022-10-16T15:51:16;11.55;;;4.13;;
60038;SDS011;45916;52.734;6.544;2022-10-16T15:53:43;8.93;;;3.30;;
60038;SDS011;45916;52.734;6.544;2022-10-16T15:56:11;9.40;;;4.72;;
60038;SDS011;45916;52.734;6.544;2022-10-16T15:58:38;8.57;;;4.13;;
60038;SDS011;45916;52.734;6.544;2022-10-16T16:01:04;8.00;;;3.90;;
60038;SDS011;45916;52.734;6.544;2022-10-16T16:03:30;9.20;;;3.95;;
60038;SDS011;45916;52.734;6.544;2022-10-16T16:05:57;11.80;;;4.80;;
60038;SDS011;45916;52.734;6.544;2022-10-16T16:08:23;8.48;;;3.85;;
60038;SDS011;45916;52.734;6.544;2022-10-16T16:11:02;12.02;;;5.43;;
60038;SDS011;45916;52.734;6.544;2022-10-16T16:13:28;8.98;;;4.57;;
60038;SDS011;45916;52.734;6.544;2022-10-16T16:15:54;10.32;;;4.72;;
60038;SDS011;45916;52.734;6.544;2022-10-16T16:18:20;8.75;;;4.20;;
60038;SDS011;45916;52.734;6.544;2022-10-16T16:20:45;5.97;;;2.88;;
60038;SDS011;45916;52.734;6.544;2022-10-16T16:23:11;9.65;;;3.90;;
60038;SDS011;45916;52.734;6.544;2022-10-16T16:25:37;12.82;;;4.65;;
60038;SDS011;45916;52.734;6.544;2022-10-16T16:28:03;9.20;;;3.58;;
60038;SDS011;45916;52.734;6.544;2022-10-16T16:30:28;10.73;;;4.20;;
60038;SDS011;45916;52.734;6.544;2022-10-16T16:32:55;8.65;;;4.13;;
60038;SDS011;45916;52.734;6.544;2022-10-16T16:35:21;6.70;;;3.90;;
60038;SDS011;45916;52.734;6.544;2022-10-16T16:37:47;7.25;;;4.25;;
60038;SDS011;45916;52.734;6.544;2022-10-16T16:40:12;9.13;;;3.92;;
60038;SDS011;45916;52.734;6.544;2022-10-16T16:42:38;10.18;;;4.00;;
60038;SDS011;45916;52.734;6.544;2022-10-16T16:45:04;10.50;;;4.22;;
60038;SDS011;45916;52.734;6.544;2022-10-16T16:47:30;10.77;;;3.88;;
60038;SDS011;45916;52.734;6.544;2022-10-16T16:49:56;8.43;;;3.70;;
60038;SDS011;45916;52.734;6.544;2022-10-16T16:52:22;8.23;;;4.22;;
60038;SDS011;45916;52.734;6.544;2022-10-16T16:54:47;10.38;;;5.00;;
60038;SDS011;45916;52.734;6.544;2022-10-16T16:57:20;11.02;;;6.13;;
60038;SDS011;45916;52.734;6.544;2022-10-16T16:59:45;13.95;;;5.50;;
60038;SDS011;45916;52.734;6.544;2022-10-16T17:02:11;9.93;;;5.90;;
60038;SDS011;45916;52.734;6.544;2022-10-16T17:04:37;10.15;;;5.40;;
60038;SDS011;45916;52.734;6.544;2022-10-16T17:07:02;11.18;;;5.47;;
60038;SDS011;45916;52.734;6.544;2022-10-16T17:09:28;12.35;;;6.47;;
60038;SDS011;45916;52.734;6.544;2022-10-16T17:11:56;12.75;;;6.05;;
60038;SDS011;45916;52.734;6.544;2022-10-16T17:14:22;14.30;;;6.53;;